sensor_id;sensor_type;location;lat;lon;timestamp;P1;durP1;ratioP1;P2;durP2;ratioP2
18473;SDS011;30265;52.408;13.500;2023-08-08T00:20:47;5.22;;;2.10;;
18473;SDS011;30265;52.408;13.500;2023-08-08T00:31:08;8.15;;;2.40;;
18473;SDS011;30265;52.408;13.500;2023-08-08T00:41:32;4.70;;;2.50;;
18473;SDS011;30265;52.408;13.500;2023-08-08T00:51:55;5.97;;;1.95;;
18473;SDS011;30265;52.408;13.500;2023-08-08T01:02:32;8.52;;;2.28;;
18473;SDS011;30265;52.408;13.500;2023-08-08T01:12:55;5.55;;;2.13;;
18473;SDS011;30265;52.408;13.500;2023-08-08T01:23:23;9.23;;;2.97;;
18473;SDS011;30265;52.408;13.500;2023-08-08T01:33:48;7.60;;;2.63;;
18473;SDS011;30265;52.408;13.500;2023-08-08T01:44:11;7.25;;;2.50;;
18473;SDS011;30265;52.408;13.500;2023-08-08T01:54:35;4.75;;;1.83;;
18473;SDS011;30265;52.408;13.500;2023-08-08T02:04:56;4.53;;;1.63;;
18473;SDS011;30265;52.408;13.500;2023-08-08T02:15:19;3.00;;;1.60;;
18473;SDS011;30265;52.408;13.500;2023-08-08T02:25:41;7.72;;;2.67;;
18473;SDS011;30265;52.408;13.500;2023-08-08T02:36:04;6.68;;;1.70;;
18473;SDS011;30265;52.408;13.500;2023-08-08T02:46:26;3.70;;;2.22;;
18473;SDS011;30265;52.408;13.500;2023-08-08T02:56:49;3.70;;;2.00;;
18473;SDS011;30265;52.408;13.500;2023-08-08T03:07:11;3.20;;;1.65;;
18473;SDS011;30265;52.408;13.500;2023-08-08T03:17:34;3.30;;;1.50;;
18473;SDS011;30265;52.408;13.500;2023-08-08T03:27:57;4.10;;;2.20;;
18473;SDS011;30265;52.408;13.500;2023-08-08T03:38:21;3.33;;;1.70;;
18473;SDS011;30265;52.408;13.500;2023-08-08T03:48:43;5.32;;;2.17;;
18473;SDS011;30265;52.408;13.500;2023-08-08T03:59:11;7.30;;;2.78;;
18473;SDS011;30265;52.408;13.500;2023-08-08T04:09:35;5.30;;;2.63;;
18473;SDS011;30265;52.408;13.500;2023-08-08T04:20:14;2.88;;;1.92;;
18473;SDS011;30265;52.408;13.500;2023-08-08T04:30:39;3.60;;;2.20;;
18473;SDS011;30265;52.408;13.500;2023-08-08T04:41:03;8.80;;;2.50;;
18473;SDS011;30265;52.408;13.500;2023-08-08T04:51:24;2.97;;;1.83;;
18473;SDS011;30265;52.408;13.500;2023-08-08T05:01:47;2.25;;;1.67;;
18473;SDS011;30265;52.408;13.500;2023-08-08T05:12:15;4.18;;;2.03;;
18473;SDS011;30265;52.408;13.500;2023-08-08T05:22:38;4.45;;;1.95;;
18473;SDS011;30265;52.408;13.500;2023-08-08T05:33:00;4.22;;;2.35;;
18473;SDS011;30265;52.408;13.500;2023-08-08T05:43:24;5.75;;;2.17;;
18473;SDS011;30265;52.408;13.500;2023-08-08T05:53:49;3.50;;;1.83;;
18473;SDS011;30265;52.408;13.500;2023-08-08T06:04:14;4.93;;;2.20;;
18473;SDS011;30265;52.408;13.500;2023-08-08T06:14:37;4.72;;;2.00;;
18473;SDS011;30265;52.408;13.500;2023-08-08T06:25:00;6.20;;;2.38;;
18473;SDS011;30265;52.408;13.500;2023-08-08T06:35:22;9.35;;;2.67;;
18473;SDS011;30265;52.408;13.500;2023-08-08T06:45:46;6.95;;;2.45;;
18473;SDS011;30265;52.408;13.500;2023-08-08T06:56:11;4.80;;;2.58;;
18473;SDS011;30265;52.408;13.500;2023-08-08T07:06:45;4.40;;;2.03;;
18473;SDS011;30265;52.408;13.500;2023-08-08T07:17:11;3.58;;;2.15;;
18473;SDS011;30265;52.408;13.500;2023-08-08T07:27:41;6.57;;;2.83;;
18473;SDS011;30265;52.408;13.500;2023-08-08T07:38:12;3.22;;;2.03;;
18473;SDS011;30265;52.408;13.500;2023-08-08T07:48:36;6.40;;;3.03;;
18473;SDS011;30265;52.408;13.500;2023-08-08T07:58:58;3.58;;;2.40;;
18473;SDS011;30265;52.408;13.500;2023-08-08T08:09:30;4.72;;;2.28;;
18473;SDS011;30265;52.408;13.500;2023-08-08T08:19:51;5.22;;;2.30;;
18473;SDS011;30265;52.408;13.500;2023-08-08T08:30:19;8.68;;;2.50;;
18473;SDS011;30265;52.408;13.500;2023-08-08T08:40:44;7.10;;;2.50;;
18473;SDS011;30265;52.408;13.500;2023-08-08T08:51:12;4.60;;;2.88;;
18473;SDS011;30265;52.408;13.500;2023-08-08T09:01:36;2.92;;;2.00;;
18473;SDS011;30265;52.408;13.500;2023-08-08T09:12:01;2.47;;;1.73;;
18473;SDS011;30265;52.408;13.500;2023-08-08T09:22:29;6.47;;;2.50;;
18473;SDS011;30265;52.408;13.500;2023-08-08T09:32:55;3.50;;;1.98;;
18473;SDS011;30265;52.408;13.500;2023-08-08T09:43:34;3.97;;;2.20;;
18473;SDS011;30265;52.408;13.500;2023-08-08T09:54:02;6.80;;;2.95;;
18473;SDS011;30265;52.408;13.500;2023-08-08T10:04:27;4.47;;;2.38;;
18473;SDS011;30265;52.408;13.500;2023-08-08T10:14:55;6.15;;;2.20;;
18473;SDS011;30265;52.408;13.500;2023-08-08T10:25:22;4.00;;;2.63;;
18473;SDS011;30265;52.408;13.500;2023-08-08T10:35:56;4.78;;;2.17;;
18473;SDS011;30265;52.408;13.500;2023-08-08T10:46:23;4.38;;;2.15;;
18473;SDS011;30265;52.408;13.500;2023-08-08T10:56:53;5.47;;;3.00;;
18473;SDS011;30265;52.408;13.500;2023-08-08T11:07:17;7.25;;;3.42;;
18473;SDS011;30265;52.408;13.500;2023-08-08T11:17:42;5.25;;;3.35;;
18473;SDS011;30265;52.408;13.500;2023-08-08T11:28:08;4.13;;;2.83;;
18473;SDS011;30265;52.408;13.500;2023-08-08T11:38:36;7.68;;;3.33;;
18473;SDS011;30265;52.408;13.500;2023-08-08T11:49:01;3.47;;;2.00;;
18473;SDS011;30265;52.408;13.500;2023-08-08T11:59:26;6.45;;;3.35;;
18473;SDS011;30265;52.408;13.500;2023-08-08T12:09:48;4.65;;;2.88;;
18473;SDS011;30265;52.408;13.500;2023-08-08T12:20:14;3.05;;;2.25;;
18473;SDS011;30265;52.408;13.500;2023-08-08T12:30:36;3.78;;;2.40;;
18473;SDS011;30265;52.408;13.500;2023-08-08T12:41:03;4.28;;;2.40;;
18473;SDS011;30265;52.408;13.500;2023-08-08T12:51:24;3.75;;;2.33;;
18473;SDS011;30265;52.408;13.500;2023-08-08T13:01:50;5.72;;;2.47;;
18473;SDS011;30265;52.408;13.500;2023-08-08T13:12:13;2.17;;;1.48;;
18473;SDS011;30265;52.408;13.500;2023-08-08T13:22:39;3.83;;;2.40;;
18473;SDS011;30265;52.408;13.500;2023-08-08T13:33:39;3.55;;;2.05;;
18473;SDS011;30265;52.408;13.500;2023-08-08T13:44:48;7.28;;;2.28;;
18473;SDS011;30265;52.408;13.500;2023-08-08T13:55:32;5.97;;;2.03;;
18473;SDS011;30265;52.408;13.500;2023-08-08T14:06:00;2.60;;;1.50;;
18473;SDS011;30265;52.408;13.500;2023-08-08T14:16:26;3.58;;;1.50;;
18473;SDS011;30265;52.408;13.500;2023-08-08T14:26:51;2.65;;;1.60;;
18473;SDS011;30265;52.408;13.500;2023-08-08T14:37:12;3.67;;;2.08;;
18473;SDS011;30265;52.408;13.500;2023-08-08T14:47:52;5.07;;;1.80;;
18473;SDS011;30265;52.408;13.500;2023-08-08T14:58:19;5.63;;;2.20;;
18473;SDS011;30265;52.408;13.500;2023-08-08T15:08:42;5.45;;;2.30;;
18473;SDS011;30265;52.408;13.500;2023-08-08T15:29:32;5.72;;;2.50;;
18473;SDS011;30265;52.408;13.500;2023-08-08T15:39:56;4.45;;;2.30;;
18473;SDS011;30265;52.408;13.500;2023-08-08T15:50:20;5.32;;;3.40;;
18473;SDS011;30265;52.408;13.500;2023-08-08T16:00:45;10.93;;;3.00;;
18473;SDS011;30265;52.408;13.500;2023-08-08T16:11:23;7.88;;;2.58;;
18473;SDS011;30265;52.408;13.500;2023-08-08T16:21:47;9.05;;;2.70;;
18473;SDS011;30265;52.408;13.500;2023-08-08T16:32:12;6.32;;;2.55;;
18473;SDS011;30265;52.408;13.500;2023-08-08T16:42:33;3.22;;;2.15;;
18473;SDS011;30265;52.408;13.500;2023-08-08T16:53:01;5.32;;;2.30;;
18473;SDS011;30265;52.408;13.500;2023-08-08T17:03:34;4.63;;;1.80;;
18473;SDS011;30265;52.408;13.500;2023-08-08T17:14:03;3.60;;;1.98;;
18473;SDS011;30265;52.408;13.500;2023-08-08T17:24:24;4.95;;;1.90;;
18473;SDS011;30265;52.408;13.500;2023-08-08T17:34:57;2.63;;;2.10;;
18473;SDS011;30265;52.408;13.500;2023-08-08T17:45:26;3.70;;;2.13;;
18473;SDS011;30265;52.408;13.500;2023-08-08T17:55:51;6.80;;;2.13;;
18473;SDS011;30265;52.408;13.500;2023-08-08T18:06:13;9.00;;;4.03;;
18473;SDS011;30265;52.408;13.500;2023-08-08T18:16:43;4.47;;;2.78;;
18473;SDS011;30265;52.408;13.500;2023-08-08T18:27:05;6.82;;;2.17;;
18473;SDS011;30265;52.408;13.500;2023-08-08T18:37:28;8.07;;;2.30;;
18473;SDS011;30265;52.408;13.500;2023-08-08T18:47:50;8.30;;;1.98;;
18473;SDS011;30265;52.408;13.500;2023-08-08T18:58:13;5.47;;;2.65;;
18473;SDS011;30265;52.408;13.500;2023-08-08T19:08:35;5.18;;;2.20;;
18473;SDS011;30265;52.408;13.500;2023-08-08T19:18:58;4.80;;;2.65;;
18473;SDS011;30265;52.408;13.500;2023-08-08T19:29:20;6.65;;;3.67;;
18473;SDS011;30265;52.408;13.500;2023-08-08T19:39:43;5.53;;;2.90;;
18473;SDS011;30265;52.408;13.500;2023-08-08T19:50:05;11.38;;;3.25;;
18473;SDS011;30265;52.408;13.500;2023-08-08T20:00:29;5.93;;;2.80;;
18473;SDS011;30265;52.408;13.500;2023-08-08T20:10:51;7.75;;;3.92;;
18473;SDS011;30265;52.408;13.500;2023-08-08T20:21:15;5.50;;;3.22;;
18473;SDS011;30265;52.408;13.500;2023-08-08T20:31:36;6.90;;;3.35;;
18473;SDS011;30265;52.408;13.500;2023-08-08T20:42:01;4.90;;;3.55;;
18473;SDS011;30265;52.408;13.500;2023-08-08T20:52:23;5.47;;;3.88;;
18473;SDS011;30265;52.408;13.500;2023-08-08T21:02:46;9.48;;;4.45;;
18473;SDS011;30265;52.408;13.500;2023-08-08T21:13:08;12.07;;;4.18;;
18473;SDS011;30265;52.408;13.500;2023-08-08T21:23:31;6.13;;;3.95;;
18473;SDS011;30265;52.408;13.500;2023-08-08T21:33:53;12.13;;;3.83;;
18473;SDS011;30265;52.408;13.500;2023-08-08T21:44:15;8.80;;;4.10;;
18473;SDS011;30265;52.408;13.500;2023-08-08T21:54:37;6.53;;;4.15;;
18473;SDS011;30265;52.408;13.500;2023-08-08T22:05:01;6.95;;;3.72;;
18473;SDS011;30265;52.408;13.500;2023-08-08T22:15:22;6.35;;;3.50;;
18473;SDS011;30265;52.408;13.500;2023-08-08T22:25:45;9.57;;;3.97;;
18473;SDS011;30265;52.408;13.500;2023-08-08T22:36:07;9.85;;;4.10;;
18473;SDS011;30265;52.408;13.500;2023-08-08T22:46:30;6.13;;;3.58;;
18473;SDS011;30265;52.408;13.500;2023-08-08T22:56:52;6.97;;;3.72;;
18473;SDS011;30265;52.408;13.500;2023-08-08T23:07:15;6.05;;;3.67;;
18473;SDS011;30265;52.408;13.500;2023-08-08T23:17:38;5.40;;;3.55;;
18473;SDS011;30265;52.408;13.500;2023-08-08T23:28:02;5.55;;;3.40;;
18473;SDS011;30265;52.408;13.500;2023-08-08T23:38:24;8.25;;;3.80;;
18473;SDS011;30265;52.408;13.500;2023-08-08T23:48:47;8.18;;;3.70;;
18473;SDS011;30265;52.408;13.500;2023-08-08T23:59:08;8.45;;;3.55;;
